createdAt,value
2023-05-01T12:41:09.779Z,71.97
2023-05-01T12:42:40.927Z,72.31
2023-05-01T12:44:12.098Z,73.01
2023-05-01T12:45:43.274Z,73.45
2023-05-01T12:47:14.444Z,74.29
2023-05-01T12:49:19.718Z,75.24
2023-05-01T13:01:30.323Z,74.43
2023-05-01T13:04:05.560Z,76.15
2023-05-01T13:05:36.680Z,76.86
2023-05-01T13:07:39.321Z,76.66
2023-05-01T13:10:13.272Z,77.57
2023-05-01T13:11:46.328Z,77.06
2023-05-01T13:13:17.464Z,76.86
2023-05-01T13:15:19.853Z,77.37
2023-05-01T13:16:50.686Z,75.95
2023-05-01T13:18:22.032Z,75.95
2023-05-01T13:20:24.678Z,76.46
2023-05-01T13:21:55.811Z,76.35
2023-05-01T13:23:28.411Z,76.05
2023-05-01T13:26:00.891Z,75.55
2023-05-01T13:27:31.743Z,73.63
2023-05-01T13:29:02.255Z,74.54
2023-05-01T13:30:35.411Z,74.43
2023-05-01T13:32:06.553Z,74.43
2023-05-01T13:33:38.695Z,75.34
2023-05-01T13:35:09.912Z,75.55
2023-05-01T13:36:41.107Z,75.45
2023-05-01T13:39:13.477Z,76.05
2023-05-01T13:41:16.881Z,76.35
2023-05-01T13:42:47.601Z,74.94
2023-05-01T13:44:20.219Z,74.74
2023-05-01T13:45:50.150Z,75.04
2023-05-01T13:47:20.760Z,75.55
2023-05-01T13:48:53.255Z,76.09
2023-05-01T13:50:24.379Z,75.45
2023-05-01T13:51:56.604Z,76.15
2023-05-01T13:53:28.750Z,76.46
2023-05-01T13:57:36.871Z,76.56
2023-05-01T13:59:39.238Z,76.02
2023-05-01T14:02:45.931Z,75.92
2023-05-01T14:04:15.167Z,75.41
2023-05-01T14:06:20.876Z,75.51
2023-05-01T14:07:52.050Z,75.10
2023-05-01T14:09:23.204Z,74.80
2023-05-01T14:10:54.416Z,75.41
2023-05-01T14:22:26.189Z,76.66
2023-05-01T14:24:28.746Z,75.65
2023-05-01T14:26:32.529Z,75.55
2023-05-01T14:28:04.636Z,75.34
2023-05-01T14:29:35.279Z,75.68
2023-05-01T14:31:39.578Z,76.39
2023-05-01T14:36:18.019Z,75.58
2023-05-01T14:37:48.818Z,75.79
2023-05-01T15:01:54.401Z,75.52
2023-05-01T15:03:25.627Z,75.82
2023-05-01T15:04:57.008Z,76.53
2023-05-01T15:06:27.959Z,76.93
2023-05-01T15:07:59.091Z,76.93
2023-05-01T15:10:01.586Z,76.36
2023-05-01T15:11:34.556Z,75.55
2023-05-01T15:13:39.796Z,75.85
2023-05-01T15:15:11.083Z,76.16
2023-05-01T15:16:41.784Z,76.67
2023-05-01T15:18:13.023Z,76.97
2023-05-01T15:20:18.602Z,77.37
2023-05-01T15:21:49.783Z,77.82
2023-05-01T15:23:20.457Z,77.72
2023-05-01T15:24:53.497Z,78.12
2023-05-01T15:26:56.868Z,77.82
2023-05-01T15:29:00.272Z,77.72
2023-05-01T15:38:58.402Z,76.33
2023-05-01T15:51:30.898Z,76.64
2023-05-01T15:53:02.418Z,77.34
2023-05-01T15:54:33.589Z,77.95
2023-05-01T15:58:11.798Z,78.80
2023-05-01T16:11:20.427Z,81.68
2023-05-01T16:13:27.668Z,81.68
2023-05-01T16:15:01.107Z,81.68
2023-05-01T16:18:06.849Z,81.88
2023-05-01T16:20:12.149Z,81.68
2023-05-01T16:30:37.715Z,82.53
2023-05-01T16:32:10.090Z,82.33
2023-05-01T16:33:43.089Z,82.43
2023-05-01T16:35:12.375Z,81.82
2023-05-01T16:37:15.093Z,82.23
2023-05-01T16:39:20.752Z,81.31
2023-05-01T17:20:26.050Z,79.16
2023-05-01T17:21:58.567Z,79.16
2023-05-01T17:23:30.207Z,79.86
2023-05-01T17:25:01.403Z,80.37
2023-05-01T17:27:03.787Z,81.29
2023-05-01T17:28:34.974Z,81.70
2023-05-01T17:30:07.553Z,82.00
2023-05-01T17:31:39.694Z,81.90
2023-05-01T17:34:59.915Z,82.92
2023-05-01T17:36:57.171Z,83.15
2023-05-01T17:40:49.988Z,84.48
2023-05-01T17:42:57.424Z,84.88
2023-05-01T17:48:28.602Z,85.53
2023-05-01T17:57:10.247Z,84.99
2023-05-01T18:20:48.734Z,81.73
2023-05-01T18:22:20.369Z,81.93
2023-05-01T18:40:30.221Z,83.20
2023-05-01T18:47:07.779Z,84.56
2023-05-01T18:56:46.151Z,85.03
2023-05-01T19:03:28.095Z,83.64
2023-05-01T19:09:35.974Z,84.05
2023-05-01T19:15:52.569Z,84.56
2023-05-01T19:17:59.103Z,84.56
2023-05-01T19:45:54.697Z,86.30
2023-05-01T19:48:01.455Z,86.30
2023-05-01T19:53:17.786Z,86.61
2023-05-01T19:55:50.968Z,86.51
2023-05-01T19:57:24.236Z,86.51
2023-05-01T20:09:40.773Z,85.75
2023-05-01T20:19:17.353Z,85.35
2023-05-01T20:20:51.677Z,85.05
2023-05-01T20:22:20.831Z,84.98
2023-05-01T20:25:38.828Z,85.08
2023-05-01T20:28:10.756Z,85.05
2023-05-01T20:30:18.157Z,85.05
2023-05-01T20:32:46.947Z,84.64
2023-05-01T20:34:19.100Z,84.94
2023-05-01T20:35:51.297Z,84.94
2023-05-01T20:37:37.265Z,84.64
2023-05-01T20:39:38.168Z,84.43
2023-05-01T20:41:10.353Z,84.33
2023-05-01T20:44:02.785Z,84.43
2023-05-01T20:47:28.991Z,85.14
2023-05-01T20:51:59.696Z,85.28
2023-05-01T20:53:32.884Z,85.28
2023-05-01T20:55:26.432Z,85.39
2023-05-01T20:57:33.850Z,84.78
2023-05-01T20:59:05.068Z,84.67
2023-05-01T21:00:36.326Z,83.96
2023-05-01T21:08:32.039Z,83.45
2023-05-01T21:10:25.612Z,83.65
2023-05-01T21:12:00.676Z,83.70
2023-05-01T21:23:15.977Z,84.20
2023-05-01T21:24:50.114Z,83.80
2023-05-01T21:26:21.322Z,83.90
2023-05-01T21:27:50.556Z,83.90
2023-05-01T21:31:12.152Z,83.59
2023-05-01T21:34:18.650Z,83.49
2023-05-01T21:35:52.297Z,83.29
2023-05-01T21:37:23.463Z,83.59
2023-05-01T21:42:08.866Z,83.43
2023-05-01T21:43:40.067Z,83.63
2023-05-01T21:45:42.446Z,83.73
2023-05-01T21:47:16.690Z,83.73
2023-05-01T21:48:49.795Z,83.53
2023-05-01T21:59:42.703Z,83.63
2023-05-01T22:12:34.688Z,83.73
2023-05-01T22:19:47.255Z,85.74
2023-05-01T22:22:41.436Z,85.94
2023-05-01T22:28:10.896Z,85.94
2023-05-01T22:29:42.089Z,85.94
2023-05-01T22:31:14.554Z,85.84
2023-05-01T22:32:45.776Z,86.04
2023-05-01T22:38:16.341Z,85.77
2023-05-01T22:40:52.122Z,85.77
2023-05-01T22:42:46.676Z,86.08
2023-05-01T22:54:03.159Z,85.98
2023-05-01T22:58:00.190Z,86.08
2023-05-01T23:00:40.465Z,86.43
2023-05-01T23:03:38.001Z,86.63
2023-05-01T23:06:30.050Z,86.63
2023-05-01T23:08:13.569Z,86.83
2023-05-01T23:09:46.123Z,86.94
2023-05-01T23:11:17.561Z,86.94
2023-05-01T23:12:48.742Z,86.63
2023-05-01T23:14:19.952Z,86.22
2023-05-01T23:16:23.308Z,86.63
2023-05-01T23:26:50.544Z,87.90
2023-05-01T23:28:21.702Z,87.85
2023-05-01T23:30:56.746Z,87.59
2023-05-01T23:32:28.269Z,87.79
2023-05-01T23:42:14.968Z,88.06
2023-05-01T23:44:19.280Z,87.96
2023-05-01T23:45:50.970Z,88.20
2023-05-01T23:47:22.139Z,88.41
2023-05-01T23:53:15.972Z,88.41
2023-05-01T23:54:48.076Z,88.71
2023-05-01T23:56:19.741Z,88.82
2023-05-01T23:58:02.514Z,88.92
